Time;durP1;ratioP1;P1;durP2;ratioP2;P2;SDS_P1;SDS_P2;PMS_P1;PMS_P2;Temp;Humidity;BMP_temperature;BMP_pressure;BME280_temperature;BME280_humidity;BME280_pressure;Samples;Min_cycle;Max_cycle;Signal;HPM_P1;HPM_P2
2022/09/06 00:01:50;;;;;;;8.07;2.23;;;;;;;;;;6225534;22;20441;-91
2022/09/06 00:04:21;;;;;;;11.63;2.13;;;;;;;;;;6226487;22;20418;-91
2022/09/06 00:06:52;;;;;;;9.87;2.60;;;;;;;;;;6225558;22;20398;-91
2022/09/06 00:09:22;;;;;;;10.50;2.00;;;;;;;;;;6250135;22;20402;-91
2022/09/06 00:11:55;;;;;;;9.00;2.53;;;;;;;;;;6251546;22;20441;-92
2022/09/06 00:14:23;;;;;;;9.67;2.57;;;;;;;;;;6225034;22;20410;-91
2022/09/06 00:16:50;;;;;;;14.23;2.23;;;;;;;;;;6224727;22;20401;-92
2022/09/06 00:19:20;;;;;;;11.00;1.97;;;;;;;;;;6225614;22;20468;-91
2022/09/06 00:21:47;;;;;;;9.83;2.20;;;;;;;;;;6225701;22;20395;-92
2022/09/06 00:24:15;;;;;;;11.50;2.20;;;;;;;;;;6224627;22;20464;-91
2022/09/06 00:26:46;;;;;;;10.03;2.57;;;;;;;;;;6250046;22;20424;-91
2022/09/06 00:29:14;;;;;;;14.03;3.40;;;;;;;;;;6225333;22;20815;-91
2022/09/06 00:31:43;;;;;;;7.80;2.00;;;;;;;;;;6224736;22;20983;-91
2022/09/06 00:34:11;;;;;;;9.20;2.23;;;;;;;;;;6223835;22;20434;-90
2022/09/06 00:36:40;;;;;;;4.47;1.80;;;;;;;;;;6224770;22;20931;-91
2022/09/06 00:39:08;;;;;;;10.13;1.93;;;;;;;;;;6224618;22;20410;-91
2022/09/06 00:41:36;;;;;;;8.90;2.70;;;;;;;;;;6223629;22;20413;-91
2022/09/06 00:44:07;;;;;;;9.50;1.97;;;;;;;;;;6249437;22;20406;-92
2022/09/06 00:46:34;;;;;;;8.00;2.13;;;;;;;;;;6249128;22;20413;-91
2022/09/06 00:49:03;;;;;;;7.43;2.83;;;;;;;;;;6225169;22;20437;-91
2022/09/06 00:51:31;;;;;;;13.83;2.10;;;;;;;;;;6225258;22;20525;-91
2022/09/06 00:54:01;;;;;;;7.80;1.87;;;;;;;;;;6224773;22;20426;-91
2022/09/06 00:56:32;;;;;;;7.00;2.53;;;;;;;;;;6226293;22;20444;-91
2022/09/06 00:58:59;;;;;;;15.27;2.17;;;;;;;;;;6225068;22;20938;-91
2022/09/06 01:01:30;;;;;;;9.00;2.20;;;;;;;;;;6250685;22;20398;-91
2022/09/06 01:04:00;;;;;;;11.20;2.53;;;;;;;;;;6277731;22;20489;-91
2022/09/06 01:06:49;;;;;;;14.70;2.97;;;;;;;;;;6224558;22;20958;-91
2022/09/06 01:09:26;;;;;;;12.90;2.37;;;;;;;;;;6225102;22;20463;-91
2022/09/06 01:12:16;;;;;;;5.10;1.90;;;;;;;;;;6249625;22;20751;-91
2022/09/06 01:15:19;;;;;;;7.40;2.07;;;;;;;;;;6251176;22;20386;-91
2022/09/06 01:18:06;;;;;;;8.43;2.20;;;;;;;;;;6099969;23;20414;-91
2022/09/06 01:20:51;;;;;;;13.83;2.10;;;;;;;;;;6100123;23;20402;-91
2022/09/06 01:23:24;;;;;;;13.00;2.33;;;;;;;;;;6076218;23;20410;-91
2022/09/06 01:26:16;;;;;;;9.87;2.10;;;;;;;;;;6099233;23;20406;-91
2022/09/06 01:28:46;;;;;;;11.10;1.90;;;;;;;;;;6075701;23;20955;-91
2022/09/06 01:31:30;;;;;;;9.30;1.83;;;;;;;;;;6076568;23;20449;-91
2022/09/06 01:34:06;;;;;;;10.47;2.60;;;;;;;;;;6076431;23;20575;-91
2022/09/06 01:36:46;;;;;;;12.27;2.40;;;;;;;;;;6099264;23;20421;-91
2022/09/06 01:39:33;;;;;;;8.60;2.10;;;;;;;;;;6083548;23;20399;-92
2022/09/06 01:42:04;;;;;;;7.63;1.80;;;;;;;;;;6099986;23;20486;-91
2022/09/06 01:44:34;;;;;;;5.33;1.80;;;;;;;;;;6075882;23;20791;-91
2022/09/06 01:47:27;;;;;;;11.03;2.17;;;;;;;;;;6076001;23;20722;-90
2022/09/06 01:50:16;;;;;;;16.00;2.73;;;;;;;;;;6008737;23;20454;-91
2022/09/06 01:52:43;;;;;;;9.80;2.57;;;;;;;;;;6109183;23;20456;-91
2022/09/06 01:55:26;;;;;;;8.40;1.83;;;;;;;;;;6128475;23;20445;-90
2022/09/06 01:58:00;;;;;;;9.07;1.80;;;;;;;;;;6128997;23;20394;-91
2022/09/06 02:00:28;;;;;;;9.03;2.10;;;;;;;;;;6104857;23;20413;-91
2022/09/06 02:03:09;;;;;;;8.97;1.93;;;;;;;;;;6128679;23;20405;-91
2022/09/06 02:05:39;;;;;;;5.23;2.03;;;;;;;;;;6128834;23;20454;-91
2022/09/06 02:08:08;;;;;;;10.10;2.30;;;;;;;;;;6128989;23;20417;-90
2022/09/06 02:10:38;;;;;;;10.80;2.07;;;;;;;;;;6128425;23;20417;-91
2022/09/06 02:13:05;;;;;;;6.20;2.20;;;;;;;;;;6152851;23;20831;-91
2022/09/06 02:15:39;;;;;;;11.50;2.00;;;;;;;;;;6104232;23;20839;-93
2022/09/06 02:18:13;;;;;;;9.47;2.23;;;;;;;;;;6153382;23;20439;-92
2022/09/06 02:21:02;;;;;;;10.07;2.17;;;;;;;;;;6128360;23;20414;-92
2022/09/06 02:23:39;;;;;;;5.87;1.80;;;;;;;;;;6122403;23;20420;-91
2022/09/06 02:26:19;;;;;;;4.00;1.90;;;;;;;;;;6181564;22;20489;-91
2022/09/06 02:28:47;;;;;;;13.40;3.40;;;;;;;;;;6249303;22;20789;-91
2022/09/06 02:31:18;;;;;;;5.93;2.73;;;;;;;;;;6249034;22;20402;-91
2022/09/06 02:33:48;;;;;;;8.93;2.33;;;;;;;;;;6225172;22;20405;-91
2022/09/06 02:36:17;;;;;;;7.00;2.27;;;;;;;;;;6224274;22;20446;-91
2022/09/06 02:38:44;;;;;;;10.47;2.03;;;;;;;;;;6225120;22;20402;-91
2022/09/06 02:41:12;;;;;;;15.23;2.90;;;;;;;;;;6227165;22;20406;-92
2022/09/06 02:43:41;;;;;;;8.20;2.40;;;;;;;;;;6225868;22;20737;-91
2022/09/06 02:46:09;;;;;;;7.90;2.40;;;;;;;;;;6226578;22;20397;-91
2022/09/06 02:48:39;;;;;;;4.83;1.60;;;;;;;;;;6226753;22;20484;-91
2022/09/06 02:51:13;;;;;;;7.60;2.40;;;;;;;;;;6227088;22;20404;-91
2022/09/06 02:53:41;;;;;;;8.20;2.37;;;;;;;;;;6249574;22;20410;-92
2022/09/06 02:56:10;;;;;;;4.60;2.17;;;;;;;;;;6225593;22;20409;-91
2022/09/06 02:58:40;;;;;;;10.57;2.53;;;;;;;;;;6225938;22;20439;-91
2022/09/06 03:01:17;;;;;;;10.53;2.50;;;;;;;;;;6251057;22;20409;-91
2022/09/06 03:03:45;;;;;;;11.20;2.53;;;;;;;;;;6251128;22;20428;-91
2022/09/06 03:06:19;;;;;;;9.40;2.27;;;;;;;;;;6226325;22;20413;-91
2022/09/06 03:08:49;;;;;;;7.40;2.40;;;;;;;;;;6225697;22;20406;-91
2022/09/06 03:11:18;;;;;;;7.40;2.80;;;;;;;;;;6251652;22;20390;-91
2022/09/06 03:13:45;;;;;;;10.30;2.97;;;;;;;;;;6225411;22;20413;-91
2022/09/06 03:16:14;;;;;;;12.47;2.80;;;;;;;;;;6225472;22;20420;-91
2022/09/06 03:18:41;;;;;;;8.83;3.00;;;;;;;;;;6225950;22;20883;-91
2022/09/06 03:21:17;;;;;;;7.47;2.73;;;;;;;;;;6230079;22;20387;-91
2022/09/06 03:23:45;;;;;;;9.93;2.90;;;;;;;;;;6251176;22;20394;-91
2022/09/06 03:26:15;;;;;;;16.27;2.83;;;;;;;;;;6226039;22;20896;-90
2022/09/06 03:28:43;;;;;;;8.77;2.37;;;;;;;;;;6251706;22;20390;-91
2022/09/06 03:31:11;;;;;;;12.13;3.30;;;;;;;;;;6225570;22;20533;-90
2022/09/06 03:33:40;;;;;;;7.60;2.77;;;;;;;;;;6226317;22;20469;-91
2022/09/06 03:36:17;;;;;;;11.60;2.57;;;;;;;;;;6277637;22;20393;-91
2022/09/06 03:38:44;;;;;;;9.20;2.50;;;;;;;;;;6226416;22;20406;-92
2022/09/06 03:41:19;;;;;;;10.17;2.47;;;;;;;;;;6250778;22;20723;-91
2022/09/06 03:43:48;;;;;;;11.30;3.20;;;;;;;;;;6226082;22;20409;-91
2022/09/06 03:46:19;;;;;;;6.70;2.70;;;;;;;;;;6251477;22;20784;-91
2022/09/06 03:48:48;;;;;;;9.20;2.73;;;;;;;;;;6226127;22;20417;-92
2022/09/06 03:51:16;;;;;;;9.33;2.53;;;;;;;;;;6250492;22;20409;-91
2022/09/06 03:53:45;;;;;;;12.77;2.70;;;;;;;;;;6249641;22;20452;-90
2022/09/06 03:56:13;;;;;;;13.70;3.43;;;;;;;;;;6250118;22;20410;-91
2022/09/06 03:58:40;;;;;;;11.43;2.90;;;;;;;;;;6226475;22;20430;-91
2022/09/06 04:01:08;;;;;;;13.70;3.10;;;;;;;;;;6225172;22;20406;-92
2022/09/06 04:03:36;;;;;;;11.60;2.73;;;;;;;;;;6225162;22;20414;-91
2022/09/06 04:06:04;;;;;;;10.13;2.70;;;;;;;;;;6224926;22;20456;-91
2022/09/06 04:08:31;;;;;;;11.97;3.00;;;;;;;;;;6225148;22;20409;-91
2022/09/06 04:11:00;;;;;;;13.20;2.70;;;;;;;;;;6225832;22;20405;-91
2022/09/06 04:13:29;;;;;;;16.53;3.73;;;;;;;;;;6225252;22;20844;-91
2022/09/06 04:15:57;;;;;;;10.83;3.00;;;;;;;;;;6251246;22;20418;-90
2022/09/06 04:18:25;;;;;;;8.40;3.00;;;;;;;;;;6225816;22;20772;-90
2022/09/06 04:20:54;;;;;;;15.67;3.00;;;;;;;;;;6225483;22;20892;-90
2022/09/06 04:23:22;;;;;;;13.27;3.27;;;;;;;;;;6224757;22;20477;-90
2022/09/06 04:25:51;;;;;;;10.57;2.87;;;;;;;;;;6249882;22;20468;-90
2022/09/06 04:28:18;;;;;;;15.83;5.10;;;;;;;;;;6247550;22;20412;-90
2022/09/06 04:30:54;;;;;;;14.07;3.30;;;;;;;;;;6220938;22;20467;-92
2022/09/06 04:33:24;;;;;;;13.77;2.93;;;;;;;;;;6250620;22;20444;-91
2022/09/06 04:36:20;;;;;;;9.33;2.90;;;;;;;;;;6276803;22;20397;-90
2022/09/06 04:38:47;;;;;;;20.20;3.70;;;;;;;;;;6249726;22;20764;-91
2022/09/06 04:41:15;;;;;;;12.20;3.00;;;;;;;;;;6250313;22;20440;-90
2022/09/06 04:43:43;;;;;;;15.80;2.70;;;;;;;;;;6225020;22;20448;-90
2022/09/06 04:46:16;;;;;;;14.20;2.73;;;;;;;;;;6225540;22;20406;-91
2022/09/06 04:48:44;;;;;;;10.10;3.07;;;;;;;;;;6250213;22;20402;-91
2022/09/06 04:51:11;;;;;;;13.50;2.50;;;;;;;;;;6249484;22;20425;-90
2022/09/06 04:53:39;;;;;;;10.97;2.67;;;;;;;;;;6225000;22;20480;-91
2022/09/06 04:56:11;;;;;;;13.57;3.20;;;;;;;;;;6225292;22;20796;-91
2022/09/06 04:58:39;;;;;;;12.10;2.50;;;;;;;;;;6250089;22;20441;-91
2022/09/06 05:01:08;;;;;;;14.03;3.30;;;;;;;;;;6225350;22;20412;-91
2022/09/06 05:03:36;;;;;;;13.20;3.17;;;;;;;;;;6249685;22;20398;-90
2022/09/06 05:06:17;;;;;;;25.20;3.13;;;;;;;;;;6249718;22;20409;-91
2022/09/06 05:08:45;;;;;;;15.27;2.50;;;;;;;;;;6225359;22;20981;-90
2022/09/06 05:11:14;;;;;;;10.43;2.50;;;;;;;;;;6224952;22;20408;-91
2022/09/06 05:13:42;;;;;;;11.60;2.37;;;;;;;;;;6276532;22;20437;-91
2022/09/06 05:16:12;;;;;;;15.40;3.00;;;;;;;;;;6225155;22;20794;-91
2022/09/06 05:18:39;;;;;;;12.40;2.93;;;;;;;;;;6225031;22;20448;-91
2022/09/06 05:21:08;;;;;;;18.13;3.63;;;;;;;;;;6250434;22;20452;-91
2022/09/06 05:23:36;;;;;;;13.47;2.63;;;;;;;;;;6276382;22;20417;-91
2022/09/06 05:26:05;;;;;;;9.73;2.33;;;;;;;;;;6225314;22;20405;-90
2022/09/06 05:28:34;;;;;;;9.20;2.63;;;;;;;;;;6248667;22;20406;-91
2022/09/06 05:31:05;;;;;;;9.77;3.33;;;;;;;;;;6224691;22;20410;-91
2022/09/06 05:33:33;;;;;;;10.93;2.73;;;;;;;;;;6249038;22;20448;-91
2022/09/06 05:36:03;;;;;;;10.97;2.50;;;;;;;;;;6224606;22;20409;-91
2022/09/06 05:38:32;;;;;;;16.90;2.90;;;;;;;;;;6225642;22;20402;-90
2022/09/06 05:41:00;;;;;;;12.60;2.97;;;;;;;;;;6249365;22;20410;-91
2022/09/06 05:43:34;;;;;;;12.57;3.07;;;;;;;;;;6225919;22;20733;-94
2022/09/06 05:46:05;;;;;;;14.73;2.83;;;;;;;;;;6225833;22;20414;-95
2022/09/06 05:52:04;;;;;;;16.43;3.87;;;;;;;;;;6277005;22;20392;-95
2022/09/06 05:54:31;;;;;;;10.13;2.27;;;;;;;;;;6249975;22;20448;-96
2022/09/06 06:00:27;;;;;;;12.70;3.07;;;;;;;;;;6278308;22;20368;-95
2022/09/06 06:03:29;;;;;;;13.33;3.20;;;;;;;;;;6225063;22;20475;-95
2022/09/06 06:06:30;;;;;;;11.63;3.30;;;;;;;;;;6253619;22;20770;-95
2022/09/06 06:09:08;;;;;;;11.23;2.80;;;;;;;;;;6250505;22;20908;-95
2022/09/06 06:11:40;;;;;;;14.67;3.27;;;;;;;;;;6250844;22;20421;-96
2022/09/06 06:14:11;;;;;;;12.60;2.90;;;;;;;;;;6251231;22;20723;-95
2022/09/06 06:16:45;;;;;;;22.70;3.50;;;;;;;;;;6253183;22;20409;-96
2022/09/06 06:19:25;;;;;;;13.77;2.80;;;;;;;;;;6229214;22;20443;-96
2022/09/06 06:22:01;;;;;;;14.23;2.97;;;;;;;;;;6252349;22;20903;-96
2022/09/06 06:27:58;;;;;;;14.50;2.63;;;;;;;;;;6279463;22;20374;-96
2022/09/06 06:30:33;;;;;;;15.90;3.33;;;;;;;;;;6227309;22;20467;-96
2022/09/06 06:33:01;;;;;;;18.07;3.13;;;;;;;;;;6227008;22;20471;-96
2022/09/06 06:35:52;;;;;;;10.97;2.93;;;;;;;;;;6228307;22;20416;-96
2022/09/06 06:41:49;;;;;;;15.93;3.47;;;;;;;;;;6278266;22;20519;-96
2022/09/06 06:44:19;;;;;;;16.97;3.40;;;;;;;;;;6227342;22;20402;-96
2022/09/06 06:50:37;;;;;;;17.20;3.80;;;;;;;;;;6279056;22;20369;-95
2022/09/06 06:59:49;;;;;;;11.40;3.20;;;;;;;;;;6247572;23;20415;-96
2022/09/06 07:02:35;;;;;;;12.20;3.13;;;;;;;;;;6222584;23;20473;-96
2022/09/06 07:08:27;;;;;;;13.03;3.17;;;;;;;;;;6248917;23;20387;-96
2022/09/06 07:11:11;;;;;;;5.57;2.03;;;;;;;;;;6222255;23;20407;-96
2022/09/06 07:14:04;;;;;;;12.63;3.20;;;;;;;;;;6233376;23;20442;-96
2022/09/06 07:17:12;;;;;;;9.60;2.60;;;;;;;;;;6218031;23;20468;-95
2022/09/06 07:19:44;;;;;;;14.70;2.83;;;;;;;;;;6198123;23;20461;-96
2022/09/06 07:22:32;;;;;;;14.20;2.80;;;;;;;;;;6205065;23;20873;-96
2022/09/06 07:25:03;;;;;;;17.70;3.00;;;;;;;;;;6198737;23;20468;-96
2022/09/06 07:27:37;;;;;;;16.80;2.80;;;;;;;;;;6225259;23;20406;-96
2022/09/06 07:30:36;;;;;;;15.53;2.73;;;;;;;;;;6168784;23;20415;-96
2022/09/06 07:39:51;;;;;;;14.90;3.27;;;;;;;;;;6184695;23;20396;-92
2022/09/06 07:42:27;;;;;;;15.30;4.10;;;;;;;;;;6160037;23;20919;-93
2022/09/06 07:45:03;;;;;;;11.33;2.97;;;;;;;;;;6183460;23;20403;-89
2022/09/06 07:47:31;;;;;;;14.60;3.67;;;;;;;;;;6168051;23;20510;-87
2022/09/06 07:50:19;;;;;;;13.20;3.40;;;;;;;;;;6224548;23;20807;-86
2022/09/06 07:53:06;;;;;;;17.60;3.40;;;;;;;;;;6223241;23;20828;-88
2022/09/06 07:55:40;;;;;;;18.00;3.50;;;;;;;;;;6244277;22;20433;-87
2022/09/06 07:58:08;;;;;;;12.30;2.67;;;;;;;;;;6225620;22;20765;-87
2022/09/06 08:00:37;;;;;;;14.77;2.40;;;;;;;;;;6225541;22;20398;-92
2022/09/06 08:03:05;;;;;;;8.83;2.60;;;;;;;;;;6227242;22;20788;-94
2022/09/06 08:05:44;;;;;;;16.13;2.90;;;;;;;;;;6228878;22;20405;-94
2022/09/06 08:08:50;;;;;;;16.27;3.57;;;;;;;;;;6255973;22;20390;-95
2022/09/06 08:11:27;;;;;;;19.50;3.57;;;;;;;;;;6231456;22;20384;-94
2022/09/06 08:13:54;;;;;;;12.20;3.17;;;;;;;;;;6215047;22;20471;-95
2022/09/06 08:16:22;;;;;;;21.00;4.20;;;;;;;;;;6228413;22;20406;-94
2022/09/06 08:22:19;;;;;;;22.00;2.77;;;;;;;;;;6280876;22;20353;-95
2022/09/06 08:24:47;;;;;;;15.43;2.07;;;;;;;;;;6227690;22;20417;-94
2022/09/06 08:27:14;;;;;;;12.33;2.40;;;;;;;;;;6227473;22;20420;-94
2022/09/06 08:29:42;;;;;;;11.47;2.50;;;;;;;;;;6228969;22;20406;-95
2022/09/06 08:32:09;;;;;;;17.07;2.30;;;;;;;;;;6227728;22;20408;-95
2022/09/06 08:41:46;;;;;;;12.33;2.00;;;;;;;;;;6282454;22;20373;-95
2022/09/06 08:44:15;;;;;;;8.97;1.80;;;;;;;;;;6256532;22;20896;-95
2022/09/06 08:47:06;;;;;;;17.07;2.37;;;;;;;;;;6228598;22;20401;-94
2022/09/06 08:49:46;;;;;;;29.33;2.67;;;;;;;;;;6229860;22;20406;-95
2022/09/06 08:52:25;;;;;;;17.27;2.40;;;;;;;;;;6229491;22;20441;-95
2022/09/06 08:55:15;;;;;;;13.43;2.20;;;;;;;;;;6257579;22;20441;-96
2022/09/06 08:57:56;;;;;;;24.33;2.80;;;;;;;;;;6253925;22;20429;-95
2022/09/06 09:10:49;;;;;;;8.27;1.63;;;;;;;;;;6282390;22;20409;-95
2022/09/06 09:13:28;;;;;;;9.93;1.80;;;;;;;;;;6231230;22;20465;-95
2022/09/06 09:15:56;;;;;;;8.87;1.83;;;;;;;;;;6230322;22;20412;-96
2022/09/06 09:18:26;;;;;;;12.40;1.97;;;;;;;;;;6232525;22;20413;-94
2022/09/06 09:20:53;;;;;;;14.70;1.93;;;;;;;;;;6231011;22;20788;-95
2022/09/06 09:27:01;;;;;;;11.43;1.97;;;;;;;;;;6282953;22;20419;-95
2022/09/06 09:36:19;;;;;;;25.10;3.33;;;;;;;;;;6281756;22;20400;-95
2022/09/06 09:42:10;;;;;;;11.93;2.47;;;;;;;;;;6281697;22;20361;-94
2022/09/06 09:48:21;;;;;;;3.80;1.40;;;;;;;;;;6290803;22;20389;-94
2022/09/06 09:50:50;;;;;;;6.07;1.63;;;;;;;;;;6272736;22;20435;-95
2022/09/06 09:53:21;;;;;;;9.80;1.83;;;;;;;;;;6247092;22;20430;-95
2022/09/06 10:06:24;;;;;;;10.73;3.97;;;;;;;;;;6190276;23;20371;-96
2022/09/06 10:09:21;;;;;;;4.23;1.33;;;;;;;;;;6170233;23;20400;-96
2022/09/06 10:11:56;;;;;;;6.60;0.90;;;;;;;;;;6164611;23;20694;-95
2022/09/06 10:17:46;;;;;;;7.23;1.27;;;;;;;;;;6189443;23;20862;-95
2022/09/06 10:20:21;;;;;;;6.83;1.47;;;;;;;;;;6189684;23;20409;-95
2022/09/06 10:23:01;;;;;;;4.30;1.00;;;;;;;;;;6190140;23;20408;-95
2022/09/06 10:25:37;;;;;;;8.97;1.33;;;;;;;;;;6165363;23;20409;-95
2022/09/06 10:28:08;;;;;;;11.00;2.00;;;;;;;;;;6190521;23;20408;-95
2022/09/06 10:31:16;;;;;;;6.60;1.50;;;;;;;;;;6193542;23;20906;-95
2022/09/06 10:37:26;;;;;;;10.17;1.97;;;;;;;;;;6283729;22;20349;-95
2022/09/06 10:43:19;;;;;;;17.20;1.63;;;;;;;;;;6282641;22;20496;-95
2022/09/06 10:45:52;;;;;;;7.00;1.37;;;;;;;;;;6233217;22;20406;-96
2022/09/06 10:48:23;;;;;;;9.60;1.67;;;;;;;;;;6259237;22;20402;-96
2022/09/06 10:51:08;;;;;;;8.77;2.73;;;;;;;;;;6257419;22;20406;-95
2022/09/06 10:57:10;;;;;;;13.70;6.47;;;;;;;;;;6305809;22;20411;-95
2022/09/06 11:00:01;;;;;;;10.13;2.47;;;;;;;;;;6242267;22;20402;-94
2022/09/06 11:06:01;;;;;;;45.20;24.87;;;;;;;;;;6285706;22;20349;-96
2022/09/06 11:08:32;;;;;;;15.07;3.83;;;;;;;;;;6231343;22;20447;-95
2022/09/06 11:14:47;;;;;;;6.70;1.70;;;;;;;;;;6286165;22;20504;-95
2022/09/06 11:20:56;;;;;;;5.83;2.07;;;;;;;;;;6286954;22;20361;-95
2022/09/06 11:23:47;;;;;;;8.40;2.37;;;;;;;;;;6232479;22;20738;-95
2022/09/06 11:29:45;;;;;;;5.33;1.60;;;;;;;;;;6300669;22;20348;-96
2022/09/06 11:35:51;;;;;;;7.00;1.60;;;;;;;;;;6287359;22;20362;-95
2022/09/06 11:42:03;;;;;;;5.43;2.23;;;;;;;;;;6288949;22;20361;-96
2022/09/06 11:51:46;;;;;;;11.87;5.53;;;;;;;;;;6297353;22;20444;-94
2022/09/06 11:58:08;;;;;;;70.67;49.57;;;;;;;;;;6306225;22;20432;-96
2022/09/06 12:12:00;;;;;;;;;;;;;;;;;;;;;
2022/09/06 12:18:37;;;;;;;17.07;9.47;;;;;;;;;;6177864;23;20376;-96
2022/09/06 12:21:12;;;;;;;19.07;8.20;;;;;;;;;;6147295;23;20413;-96
2022/09/06 12:27:25;;;;;;;13.13;5.30;;;;;;;;;;6169119;23;20458;-94
2022/09/06 12:29:56;;;;;;;6.53;1.77;;;;;;;;;;6118596;23;20415;-94
2022/09/06 12:32:30;;;;;;;4.13;0.90;;;;;;;;;;6120261;23;20409;-94
2022/09/06 12:35:04;;;;;;;5.80;1.50;;;;;;;;;;6120909;23;20954;-94
2022/09/06 12:38:00;;;;;;;11.53;1.40;;;;;;;;;;6128176;23;20420;-95
2022/09/06 12:40:29;;;;;;;6.80;2.50;;;;;;;;;;6117628;23;20481;-95
2022/09/06 12:46:27;;;;;;;11.43;2.33;;;;;;;;;;6162447;23;20412;-95
2022/09/06 12:49:00;;;;;;;5.60;1.20;;;;;;;;;;6110338;23;20811;-95
2022/09/06 12:51:28;;;;;;;3.20;1.10;;;;;;;;;;6174087;22;20406;-95
2022/09/06 12:57:28;;;;;;;7.60;1.50;;;;;;;;;;6284615;22;20358;-94
2022/09/06 13:00:00;;;;;;;4.83;1.50;;;;;;;;;;6236177;22;20452;-94
2022/09/06 13:02:34;;;;;;;3.57;1.07;;;;;;;;;;6238702;22;20429;-96
2022/09/06 13:05:04;;;;;;;3.70;0.83;;;;;;;;;;6259769;22;20719;-95
2022/09/06 13:07:34;;;;;;;6.33;1.07;;;;;;;;;;6237932;22;20413;-94
2022/09/06 13:10:05;;;;;;;10.93;0.97;;;;;;;;;;6235657;22;20409;-95
2022/09/06 13:15:55;;;;;;;9.07;1.30;;;;;;;;;;6284621;22;20441;-96
2022/09/06 13:18:42;;;;;;;4.20;1.20;;;;;;;;;;6237963;22;20406;-94
2022/09/06 13:21:14;;;;;;;3.60;1.00;;;;;;;;;;6262188;22;20459;-95
2022/09/06 13:27:28;;;;;;;3.53;1.20;;;;;;;;;;6285619;22;20452;-95
2022/09/06 13:40:58;;;;;;;3.17;1.23;;;;;;;;;;6281582;22;20372;-95
2022/09/06 13:47:04;;;;;;;6.83;0.93;;;;;;;;;;6285168;22;20684;-95
2022/09/06 13:49:34;;;;;;;5.20;1.30;;;;;;;;;;6235180;22;20405;-96
2022/09/06 13:55:32;;;;;;;5.90;1.53;;;;;;;;;;6281798;22;20409;-95
2022/09/06 13:58:00;;;;;;;3.40;0.90;;;;;;;;;;6228950;22;20405;-95
2022/09/06 14:04:26;;;;;;;7.00;1.43;;;;;;;;;;6280211;22;20408;-95
2022/09/06 14:06:54;;;;;;;6.30;1.77;;;;;;;;;;6256404;22;20429;-95
2022/09/06 14:09:23;;;;;;;4.70;1.20;;;;;;;;;;6232676;22;20409;-95
2022/09/06 14:11:51;;;;;;;10.83;1.40;;;;;;;;;;6231792;22;20428;-95
2022/09/06 14:14:19;;;;;;;6.13;1.43;;;;;;;;;;6230918;22;20481;-94
2022/09/06 14:23:46;;;;;;;6.30;1.30;;;;;;;;;;6281051;22;20756;-95
2022/09/06 14:36:37;;;;;;;10.40;1.90;;;;;;;;;;6284076;22;20400;-95
2022/09/06 14:42:46;;;;;;;7.70;1.20;;;;;;;;;;6282652;22;20400;-95
2022/09/06 14:45:16;;;;;;;8.77;1.47;;;;;;;;;;6258295;22;20409;-95
2022/09/06 14:47:44;;;;;;;4.60;1.07;;;;;;;;;;6234009;22;20406;-95
2022/09/06 14:50:14;;;;;;;9.20;1.27;;;;;;;;;;6236869;22;20780;-95
2022/09/06 14:52:45;;;;;;;5.43;1.10;;;;;;;;;;6237618;22;20421;-95
2022/09/06 14:55:14;;;;;;;8.70;1.40;;;;;;;;;;6235539;22;20437;-94
2022/09/06 14:57:44;;;;;;;5.00;1.37;;;;;;;;;;6237880;22;20436;-95
2022/09/06 15:00:14;;;;;;;4.33;1.40;;;;;;;;;;6242311;22;20430;-96
2022/09/06 15:06:14;;;;;;;7.27;1.13;;;;;;;;;;6289776;22;20935;-96
2022/09/06 15:08:42;;;;;;;13.43;1.93;;;;;;;;;;6234669;22;20409;-96
2022/09/06 15:18:07;;;;;;;7.37;1.20;;;;;;;;;;6290813;22;20487;-96
2022/09/06 15:20:34;;;;;;;4.90;1.13;;;;;;;;;;6241044;22;20389;-96
2022/09/06 15:23:19;;;;;;;7.53;1.40;;;;;;;;;;6241516;22;20409;-96
2022/09/06 15:25:55;;;;;;;4.00;1.03;;;;;;;;;;6266053;22;20417;-96
2022/09/06 15:28:22;;;;;;;10.00;1.77;;;;;;;;;;6263291;22;20402;-96
2022/09/06 15:30:54;;;;;;;7.40;1.50;;;;;;;;;;6240954;22;20418;-96
2022/09/06 15:33:23;;;;;;;6.87;1.53;;;;;;;;;;6261758;22;20900;-96
2022/09/06 15:35:53;;;;;;;9.93;1.53;;;;;;;;;;6238535;22;20437;-96
2022/09/06 15:38:23;;;;;;;11.73;1.73;;;;;;;;;;6239702;22;20410;-96
2022/09/06 15:44:20;;;;;;;7.40;1.40;;;;;;;;;;6286013;22;20356;-96
2022/09/06 15:46:52;;;;;;;5.80;1.30;;;;;;;;;;6231999;22;20409;-96
2022/09/06 15:49:21;;;;;;;8.13;1.40;;;;;;;;;;6233136;22;20406;-96
2022/09/06 15:51:55;;;;;;;10.70;1.90;;;;;;;;;;6232813;22;20406;-96
2022/09/06 15:55:55;;;;;;;10.43;1.67;;;;;;;;;;6255949;22;20465;-96
2022/09/06 16:04:15;;;;;;;14.47;2.37;;;;;;;;;;6285205;22;20425;-96
2022/09/06 16:06:44;;;;;;;10.67;2.30;;;;;;;;;;6231989;22;20406;-96
2022/09/06 16:09:16;;;;;;;11.13;2.00;;;;;;;;;;6229939;22;20729;-96
2022/09/06 16:11:44;;;;;;;9.30;1.60;;;;;;;;;;6254572;22;20405;-96
2022/09/06 16:21:20;;;;;;;12.43;1.40;;;;;;;;;;6289105;22;20698;-96
2022/09/06 16:23:57;;;;;;;9.53;1.67;;;;;;;;;;6263751;22;20410;-96
2022/09/06 16:26:31;;;;;;;10.70;2.23;;;;;;;;;;6239599;22;20485;-96
2022/09/06 16:29:01;;;;;;;8.77;1.70;;;;;;;;;;6241067;22;20787;-96
2022/09/06 16:31:29;;;;;;;11.97;1.87;;;;;;;;;;6238088;22;20406;-95
2022/09/06 16:37:43;;;;;;;6.20;1.77;;;;;;;;;;6286119;22;20366;-96
2022/09/06 16:40:11;;;;;;;10.83;1.60;;;;;;;;;;6230111;22;20413;-96
2022/09/06 16:42:39;;;;;;;10.10;1.70;;;;;;;;;;6232377;22;20406;-96
2022/09/06 16:45:07;;;;;;;9.93;2.13;;;;;;;;;;6230045;22;20434;-96
2022/09/06 16:54:24;;;;;;;11.47;1.83;;;;;;;;;;6285220;22;20437;-96
2022/09/06 16:56:52;;;;;;;12.90;1.90;;;;;;;;;;6233997;22;20433;-96
2022/09/06 17:02:49;;;;;;;7.47;1.90;;;;;;;;;;6281060;22;20446;-96
2022/09/06 17:05:19;;;;;;;8.70;1.43;;;;;;;;;;6233009;22;20417;-96
2022/09/06 17:07:49;;;;;;;9.30;1.77;;;;;;;;;;6232062;22;20484;-96
2022/09/06 17:10:17;;;;;;;15.83;1.63;;;;;;;;;;6233311;22;20908;-96
2022/09/06 17:12:49;;;;;;;11.23;2.00;;;;;;;;;;6236473;22;20406;-96
2022/09/06 17:21:56;;;;;;;7.37;0.97;;;;;;;;;;6280646;22;20496;-96
2022/09/06 17:24:25;;;;;;;7.40;1.40;;;;;;;;;;6228835;22;20410;-95
2022/09/06 17:26:53;;;;;;;4.93;0.97;;;;;;;;;;6227797;22;20409;-96
2022/09/06 17:29:21;;;;;;;9.10;1.77;;;;;;;;;;6227289;22;20804;-96
2022/09/06 17:31:49;;;;;;;8.80;1.70;;;;;;;;;;6228189;22;20435;-96
2022/09/06 17:34:17;;;;;;;11.30;2.00;;;;;;;;;;6227190;22;20439;-96
2022/09/06 17:36:44;;;;;;;5.23;0.97;;;;;;;;;;6226990;22;20412;-96
2022/09/06 17:42:41;;;;;;;6.23;1.40;;;;;;;;;;6282504;22;20365;-90
2022/09/06 18:06:06;;;;;;;6.30;1.53;;;;;;;;;;6283543;22;20528;-96
2022/09/06 18:08:44;;;;;;;8.63;1.87;;;;;;;;;;6226749;22;20434;-96
2022/09/06 18:15:02;;;;;;;15.97;2.10;;;;;;;;;;6279101;22;20790;-96
2022/09/06 18:17:31;;;;;;;11.83;1.77;;;;;;;;;;6252245;22;20410;-96
2022/09/06 19:38:15;;;;;;;16.10;2.40;;;;;;;;;;6278810;22;20460;-96
2022/09/06 19:41:15;;;;;;;20.57;2.90;;;;;;;;;;6253051;22;20412;-96
2022/09/06 19:50:10;;;;;;;20.00;3.37;;;;;;;;;;6278651;22;20406;-95
2022/09/06 20:51:57;;;;;;;20.13;3.10;;;;;;;;;;6287790;22;20453;-89
2022/09/06 20:54:25;;;;;;;11.20;1.70;;;;;;;;;;6280470;22;20393;-89
2022/09/06 20:56:53;;;;;;;12.40;1.80;;;;;;;;;;6255969;22;20412;-92
2022/09/06 20:59:21;;;;;;;16.30;2.40;;;;;;;;;;6256284;22;20413;-91
2022/09/06 21:01:49;;;;;;;12.10;2.37;;;;;;;;;;6255474;22;20500;-92
2022/09/06 21:04:17;;;;;;;15.83;2.37;;;;;;;;;;6256370;22;20390;-92
2022/09/06 21:06:45;;;;;;;15.60;2.53;;;;;;;;;;6279620;22;20427;-92
2022/09/06 21:09:14;;;;;;;18.83;2.00;;;;;;;;;;6280441;22;20436;-92
2022/09/06 21:11:42;;;;;;;10.57;2.10;;;;;;;;;;6280622;22;20405;-91
2022/09/06 21:14:09;;;;;;;11.33;1.80;;;;;;;;;;6255292;22;20397;-90
2022/09/06 21:16:38;;;;;;;15.13;2.27;;;;;;;;;;6282491;22;20452;-89
2022/09/06 21:19:06;;;;;;;13.43;1.83;;;;;;;;;;6255731;22;20403;-89
2022/09/06 21:21:33;;;;;;;12.60;1.90;;;;;;;;;;6282247;22;20412;-89
2022/09/06 21:24:01;;;;;;;9.67;2.23;;;;;;;;;;6256983;22;20401;-89
2022/09/06 21:26:29;;;;;;;15.87;2.23;;;;;;;;;;6256348;22;20408;-89
2022/09/06 21:28:57;;;;;;;11.07;2.30;;;;;;;;;;6255562;22;20787;-89
2022/09/06 21:31:25;;;;;;;17.30;3.23;;;;;;;;;;6256544;22;20397;-89
2022/09/06 21:33:54;;;;;;;13.93;3.07;;;;;;;;;;6256209;22;20477;-89
2022/09/06 21:36:23;;;;;;;10.03;2.17;;;;;;;;;;6281325;22;20436;-89
2022/09/06 21:38:57;;;;;;;9.40;1.70;;;;;;;;;;6256078;22;20397;-89
2022/09/06 21:41:25;;;;;;;26.83;3.67;;;;;;;;;;6256599;22;20397;-89
2022/09/06 21:43:53;;;;;;;17.33;1.70;;;;;;;;;;6255283;22;20464;-90
2022/09/06 21:46:21;;;;;;;15.80;2.23;;;;;;;;;;6283232;22;20416;-90
2022/09/06 21:48:50;;;;;;;18.10;2.27;;;;;;;;;;6280995;22;20389;-89
2022/09/06 21:51:19;;;;;;;15.90;2.70;;;;;;;;;;6255424;22;20435;-89
2022/09/06 21:53:47;;;;;;;19.57;2.80;;;;;;;;;;6254932;22;20471;-90
2022/09/06 21:56:18;;;;;;;13.63;2.00;;;;;;;;;;6280986;22;20445;-89
2022/09/06 21:58:48;;;;;;;16.87;2.27;;;;;;;;;;6256707;22;20409;-90
2022/09/06 22:01:16;;;;;;;21.60;3.10;;;;;;;;;;6256181;22;20397;-90
2022/09/06 22:03:46;;;;;;;21.23;2.70;;;;;;;;;;6256491;22;20397;-90
2022/09/06 22:06:19;;;;;;;14.20;2.20;;;;;;;;;;6281925;22;20387;-90
2022/09/06 22:08:50;;;;;;;16.07;2.10;;;;;;;;;;6256994;22;20440;-90
2022/09/06 22:11:22;;;;;;;10.30;1.63;;;;;;;;;;6255334;22;20459;-88
2022/09/06 22:13:50;;;;;;;15.03;2.57;;;;;;;;;;6281084;22;20389;-90